Дата Пункты Температура Давл., мм. Влажн., % Ветер Погодные явления
Воздуха Воды Направл. Скорость
10.09.19 09:00 Одесса 22.0 22.0 762 69 Пд-С 4 21 ГОДИНУ
10.09.19 06:00 Одесса 23.0 22.0 761 58 С 3 18 ГОДИН
10.09.19 03:00 Одесса 25.0 22.0 761 41 С 6 15 ГОДИН
10.09.19 12:00 Одесса 23.0 22.0 762 59 С 5 12 ГОДИН
10.09.19 09:00 Одесса 20.0 22.0 762 69 Пн-С 4 09 ГОДИН
10.09.19 06:00 Одесса 21.0 21.0 761 67 С 7 06 ГОДИН
10.09.19 03:00 Одесса 22.0 21.0 760 53 С 8 03 ГОДИНИ
09.09.19 09:00 Одесса 23.0 21.0 761 57 Пд-С 6 21 ГОДИНУ
09.09.19 06:00 Одесса 23.0 22.0 761 59 Пд-С 2 18 ГОДИН
09.09.19 03:00 Одесса 25.0 22.0 761 43 С 8 15 ГОДИН
09.09.19 12:00 Одесса 24.0 22.0 763 56 С 3 12 ГОДИН
09.09.19 09:00 Одесса 21.0 22.0 763 63 С 7 09 ГОДИН
09.09.19 06:00 Одесса 20.0 22.0 763 62 Пн-С 6 06 ГОДИН
09.09.19 03:00 Одесса 22.0 22.0 763 63 Пн-С 4 03 ГОДИНИ
08.09.19 09:00 Одесса 21.0 22.0 763 57 Пд 1 21 ГОДИНУ
08.09.19 06:00 Одесса 26.0 22.0 763 29 Пн 0 18 ГОДИН
08.09.19 03:00 Одесса 27.0 22.0 763 37 Пд-С 3 15 ГОДИН
08.09.19 12:00 Одесса 25.0 22.0 763 57 С 3 12 ГОДИН
08.09.19 09:00 Одесса 22.0 22.0 763 72 Пн-С 2 09 ГОДИН
08.09.19 06:00 Одесса 18.0 22.0 762 90 Пн 0 06 ГОДИН
Количество строк
1 2 3 4 5 6 7 8 9 10
Page 3 of 530